Time;durP1;ratioP1;P1;durP2;ratioP2;P2;SDS_P1;SDS_P2;PMS_P1;PMS_P2;Temp;Humidity;BMP_temperature;BMP_pressure;BME280_temperature;BME280_humidity;BME280_pressure;Samples;Min_cycle;Max_cycle;Signal;HPM_P1;HPM_P2
2022/10/23 00:00:37;;;;;;;17.73;7.20;;;14.40;83.30;;;;;;5033350;28;20072;-85
2022/10/23 00:03:03;;;;;;;13.38;7.50;;;14.50;84.20;;;;;;5033504;28;20498;-85
2022/10/23 00:05:29;;;;;;;13.98;7.40;;;14.50;83.30;;;;;;5017118;28;20025;-86
2022/10/23 00:07:57;;;;;;;12.80;6.65;;;14.50;83.20;;;;;;5017152;28;20025;-86
2022/10/23 00:10:25;;;;;;;10.02;6.40;;;14.60;83.20;;;;;;5032753;28;20127;-86
2022/10/23 00:12:52;;;;;;;12.70;6.25;;;14.60;83.00;;;;;;5033207;28;20476;-86
2022/10/23 00:15:20;;;;;;;10.68;5.88;;;14.50;82.80;;;;;;5016626;28;20025;-84
2022/10/23 00:17:46;;;;;;;10.38;5.85;;;14.60;82.80;;;;;;5034473;28;20029;-86
2022/10/23 00:20:14;;;;;;;11.60;6.05;;;14.50;82.70;;;;;;5016757;28;20029;-86
2022/10/23 00:22:39;;;;;;;11.35;5.90;;;14.50;82.60;;;;;;5033090;28;20391;-85
2022/10/23 00:25:06;;;;;;;9.43;5.95;;;14.50;82.50;;;;;;5017212;28;20103;-86
2022/10/23 00:27:32;;;;;;;10.85;6.32;;;14.50;82.60;;;;;;5000136;28;20387;-86
2022/10/23 00:29:58;;;;;;;11.10;6.65;;;14.50;82.60;;;;;;5032741;28;20734;-86
2022/10/23 00:32:24;;;;;;;9.13;5.65;;;14.50;82.60;;;;;;5032789;28;20089;-86
2022/10/23 00:34:50;;;;;;;11.48;5.85;;;14.50;82.40;;;;;;5032328;28;20211;-86
2022/10/23 00:37:15;;;;;;;10.95;6.80;;;14.40;82.20;;;;;;5016365;28;20126;-86
2022/10/23 00:39:41;;;;;;;9.95;5.90;;;14.40;82.20;;;;;;5032875;28;20127;-86
2022/10/23 00:42:09;;;;;;;12.50;6.45;;;14.30;82.20;;;;;;5033255;28;20034;-85
2022/10/23 00:44:34;;;;;;;10.98;6.65;;;14.20;82.50;;;;;;5032574;28;20060;-85
2022/10/23 00:47:00;;;;;;;9.27;6.28;;;14.20;83.00;;;;;;5032263;28;20025;-86
2022/10/23 00:49:27;;;;;;;15.90;7.18;;;14.20;83.20;;;;;;5016357;28;20131;-86
2022/10/23 00:51:57;;;;;;;13.68;7.05;;;14.20;83.20;;;;;;5016131;28;20057;-86
2022/10/23 00:54:26;;;;;;;12.20;7.53;;;14.20;83.30;;;;;;5032335;28;20093;-86
2022/10/23 00:56:55;;;;;;;13.68;7.90;;;14.20;83.40;;;;;;5032568;28;20025;-85
2022/10/23 00:59:22;;;;;;;16.13;8.45;;;14.20;83.60;;;;;;5034470;28;20049;-86
2022/10/23 01:01:47;;;;;;;12.48;7.80;;;14.30;83.80;;;;;;5015577;28;20045;-86
2022/10/23 01:04:13;;;;;;;13.68;7.82;;;14.30;84.60;;;;;;5015675;28;20017;-86
2022/10/23 01:07:18;;;;;;;12.52;7.53;;;14.30;83.80;;;;;;5032269;28;20034;-86
2022/10/23 01:10:10;;;;;;;14.35;7.60;;;14.40;83.90;;;;;;5031929;28;20025;-86
2022/10/23 01:13:10;;;;;;;12.80;7.55;;;14.40;83.90;;;;;;5032291;28;20029;-86
2022/10/23 01:16:02;;;;;;;15.07;7.70;;;14.40;83.80;;;;;;5032415;28;20021;-86
2022/10/23 01:18:42;;;;;;;13.68;6.38;;;14.40;83.50;;;;;;5032004;28;20167;-86
2022/10/23 01:21:10;;;;;;;9.48;6.00;;;14.30;83.60;;;;;;5031667;28;20029;-86
2022/10/23 01:23:48;;;;;;;12.27;6.45;;;14.30;83.60;;;;;;5031964;28;20022;-85
2022/10/23 01:26:38;;;;;;;11.18;7.18;;;14.20;83.40;;;;;;5032010;28;20112;-85
2022/10/23 01:29:18;;;;;;;12.68;7.07;;;14.30;83.70;;;;;;5031449;28;20088;-86
2022/10/23 01:32:30;;;;;;;11.07;7.10;;;14.20;83.80;;;;;;5031155;28;20049;-86
2022/10/23 01:35:06;;;;;;;12.75;7.00;;;14.30;83.60;;;;;;4975089;28;20487;-86
2022/10/23 01:37:44;;;;;;;12.60;6.55;;;14.20;83.40;;;;;;5031865;28;20029;-86
2022/10/23 01:40:23;;;;;;;12.13;6.03;;;14.20;83.40;;;;;;5031243;28;20045;-86
2022/10/23 01:42:54;;;;;;;10.82;6.15;;;14.20;83.50;;;;;;5031512;28;20025;-86
2022/10/23 01:45:38;;;;;;;12.07;5.90;;;14.20;83.70;;;;;;5031570;28;20471;-86
2022/10/23 01:48:06;;;;;;;11.30;5.85;;;14.20;83.90;;;;;;5031635;28;20018;-86
2022/10/23 01:50:33;;;;;;;10.15;5.90;;;14.10;83.80;;;;;;5031545;28;20056;-86
2022/10/23 01:52:59;;;;;;;11.38;6.30;;;14.00;83.90;;;;;;5015555;28;20026;-86
2022/10/23 01:55:25;;;;;;;11.50;6.22;;;14.00;84.10;;;;;;5014825;28;20502;-86
2022/10/23 01:57:52;;;;;;;8.32;5.28;;;13.90;84.00;;;;;;5014978;28;20029;-86
2022/10/23 02:00:19;;;;;;;8.23;5.38;;;13.90;84.20;;;;;;5014843;28;20025;-86
2022/10/23 02:02:47;;;;;;;14.18;6.28;;;13.90;84.20;;;;;;5031255;28;20445;-86
2022/10/23 02:05:17;;;;;;;10.13;5.40;;;13.90;84.90;;;;;;5031268;28;20039;-86
2022/10/23 02:07:44;;;;;;;7.90;5.10;;;14.00;84.00;;;;;;5031512;28;20026;-86
2022/10/23 02:10:11;;;;;;;8.98;4.82;;;14.00;84.00;;;;;;5031589;28;20112;-86
2022/10/23 02:13:05;;;;;;;8.45;4.88;;;14.10;83.90;;;;;;5031259;28;20116;-85
2022/10/23 02:15:39;;;;;;;8.88;4.95;;;14.10;83.80;;;;;;5031060;28;20075;-86
2022/10/23 02:18:12;;;;;;;8.07;5.10;;;14.00;83.70;;;;;;5030885;28;20030;-86
2022/10/23 02:20:44;;;;;;;7.65;4.85;;;14.00;83.50;;;;;;5031248;28;20025;-86
2022/10/23 02:23:34;;;;;;;10.07;5.40;;;13.90;83.50;;;;;;5032664;28;20104;-86
2022/10/23 02:26:06;;;;;;;9.23;4.97;;;13.80;84.00;;;;;;5031214;28;20036;-86
2022/10/23 02:28:47;;;;;;;8.77;4.57;;;13.70;83.80;;;;;;5031193;28;20074;-86
2022/10/23 02:31:16;;;;;;;8.20;4.70;;;13.70;83.90;;;;;;5030840;28;20041;-85
2022/10/23 02:33:44;;;;;;;8.93;4.95;;;13.60;84.00;;;;;;5030699;28;20025;-86
2022/10/23 02:36:10;;;;;;;10.73;4.82;;;13.60;84.20;;;;;;5014518;28;20056;-86
2022/10/23 02:38:43;;;;;;;7.60;4.70;;;13.60;84.30;;;;;;5031587;28;20048;-86
2022/10/23 02:41:35;;;;;;;9.95;4.95;;;13.60;84.20;;;;;;5032524;28;20034;-86
2022/10/23 02:44:03;;;;;;;9.10;4.53;;;13.60;84.10;;;;;;5033079;28;20026;-86
2022/10/23 02:46:49;;;;;;;7.00;4.40;;;13.60;84.10;;;;;;5034600;28;20022;-86
2022/10/23 02:49:48;;;;;;;12.85;5.30;;;13.60;84.30;;;;;;5034639;28;20029;-86
2022/10/23 02:52:23;;;;;;;10.77;5.15;;;13.60;84.40;;;;;;5036440;28;20085;-85
2022/10/23 02:55:03;;;;;;;9.55;4.85;;;13.60;84.40;;;;;;5034408;28;20017;-85
2022/10/23 02:57:34;;;;;;;7.85;4.00;;;13.60;84.50;;;;;;5035286;28;20033;-86
2022/10/23 03:00:06;;;;;;;8.63;4.43;;;13.70;84.60;;;;;;5034696;28;20382;-86
2022/10/23 03:02:41;;;;;;;9.10;4.10;;;13.70;84.60;;;;;;5035084;28;20021;-86
2022/10/23 03:05:12;;;;;;;10.77;4.28;;;13.70;84.70;;;;;;5034570;28;20124;-85
2022/10/23 03:07:39;;;;;;;9.07;4.10;;;13.80;84.80;;;;;;5034381;28;20047;-86
2022/10/23 03:10:06;;;;;;;8.60;4.00;;;13.80;84.80;;;;;;5034387;28;20034;-86
2022/10/23 03:12:33;;;;;;;8.80;4.45;;;13.80;84.90;;;;;;5017815;28;20376;-86
2022/10/23 03:14:58;;;;;;;9.48;4.05;;;13.80;84.90;;;;;;5034207;28;20064;-86
2022/10/23 03:17:24;;;;;;;7.88;4.22;;;13.80;85.70;;;;;;5035512;28;20487;-86
2022/10/23 03:19:53;;;;;;;8.93;4.45;;;13.90;84.90;;;;;;5018406;28;20403;-86
2022/10/23 03:22:18;;;;;;;10.10;4.80;;;13.90;84.80;;;;;;5017447;28;20088;-85
2022/10/23 03:24:45;;;;;;;8.60;4.13;;;13.90;84.80;;;;;;5034102;28;20030;-86
2022/10/23 03:27:11;;;;;;;7.28;4.07;;;13.90;85.00;;;;;;5034498;28;20528;-86
2022/10/23 03:29:37;;;;;;;9.40;4.30;;;13.90;85.10;;;;;;5017710;28;20060;-85
2022/10/23 03:32:03;;;;;;;8.52;4.32;;;13.90;85.30;;;;;;5017112;28;20045;-85
2022/10/23 03:34:29;;;;;;;8.20;4.30;;;13.90;85.40;;;;;;5017830;28;20036;-85
2022/10/23 03:36:54;;;;;;;12.30;4.68;;;13.90;85.50;;;;;;5034332;28;20021;-85
2022/10/23 03:39:20;;;;;;;11.95;4.50;;;13.90;85.60;;;;;;5017352;28;20131;-85
2022/10/23 03:41:46;;;;;;;9.43;4.35;;;13.90;85.70;;;;;;5035026;28;20459;-85
2022/10/23 03:44:12;;;;;;;12.20;4.20;;;14.00;85.80;;;;;;5017220;28;20029;-85
2022/10/23 03:46:38;;;;;;;10.20;4.80;;;14.00;86.80;;;;;;5017611;28;20026;-85
2022/10/23 03:49:04;;;;;;;9.35;4.88;;;14.00;86.10;;;;;;5017134;28;20048;-86
2022/10/23 03:51:30;;;;;;;9.85;4.97;;;14.00;86.20;;;;;;5033745;28;20108;-85
2022/10/23 03:53:55;;;;;;;11.75;4.47;;;14.00;86.30;;;;;;5016953;28;20446;-86
2022/10/23 03:56:21;;;;;;;8.80;4.72;;;14.00;86.40;;;;;;5033400;28;20383;-85
2022/10/23 03:58:47;;;;;;;9.23;4.15;;;14.00;86.30;;;;;;5033624;28;20061;-85
2022/10/23 04:01:13;;;;;;;6.88;4.10;;;14.00;86.30;;;;;;5016914;28;20022;-85
2022/10/23 04:03:38;;;;;;;7.65;4.65;;;14.00;86.70;;;;;;5016787;28;20029;-85
2022/10/23 04:06:04;;;;;;;9.95;4.53;;;14.00;86.60;;;;;;5016988;28;20021;-85
2022/10/23 04:08:30;;;;;;;8.40;4.75;;;14.00;86.70;;;;;;5033359;28;20026;-85
2022/10/23 04:10:56;;;;;;;8.52;4.20;;;14.00;86.70;;;;;;5017171;28;20025;-85
2022/10/23 04:13:21;;;;;;;9.45;4.85;;;14.00;87.00;;;;;;5017417;28;20070;-85
2022/10/23 04:15:48;;;;;;;9.70;4.72;;;14.00;87.10;;;;;;5016216;28;20170;-85
2022/10/23 04:18:15;;;;;;;9.40;5.07;;;14.00;87.30;;;;;;5033180;28;20424;-85
2022/10/23 04:20:41;;;;;;;8.88;4.53;;;14.00;87.40;;;;;;5017185;28;20028;-85
2022/10/23 04:23:06;;;;;;;9.10;4.53;;;14.00;87.40;;;;;;5033301;28;20034;-86
2022/10/23 04:25:32;;;;;;;8.38;4.65;;;14.00;88.00;;;;;;5016776;28;20567;-85
2022/10/23 04:27:57;;;;;;;10.38;4.70;;;14.00;88.00;;;;;;5017008;28;20105;-85
2022/10/23 04:30:23;;;;;;;8.45;4.43;;;14.00;88.10;;;;;;5033254;28;20041;-85
2022/10/23 04:32:50;;;;;;;9.70;4.38;;;14.00;88.20;;;;;;5016400;28;20037;-85
2022/10/23 04:35:16;;;;;;;7.07;4.57;;;14.00;88.30;;;;;;5032536;28;20403;-85
2022/10/23 04:37:42;;;;;;;8.05;4.35;;;14.00;88.50;;;;;;5032770;28;20549;-86
2022/10/23 04:40:08;;;;;;;10.48;4.80;;;13.90;88.70;;;;;;5016190;28;20037;-85
2022/10/23 04:42:34;;;;;;;10.63;4.72;;;14.00;88.90;;;;;;5016514;28;20335;-85
2022/10/23 04:45:00;;;;;;;9.18;4.57;;;14.00;89.20;;;;;;5032651;28;20018;-85
2022/10/23 04:47:26;;;;;;;11.02;5.05;;;14.00;89.10;;;;;;5033320;28;20026;-85
2022/10/23 04:49:51;;;;;;;8.60;4.80;;;14.00;89.10;;;;;;5016070;28;20112;-85
2022/10/23 04:52:17;;;;;;;10.23;4.80;;;14.00;89.10;;;;;;5015922;28;20098;-85
2022/10/23 04:54:43;;;;;;;12.20;5.78;;;14.00;89.30;;;;;;5032317;28;20112;-86
2022/10/23 04:57:08;;;;;;;10.82;4.53;;;14.00;89.20;;;;;;5032252;28;20029;-85
2022/10/23 04:59:34;;;;;;;9.05;4.50;;;14.10;89.50;;;;;;5015722;28;20022;-85
2022/10/23 05:02:00;;;;;;;8.00;4.35;;;14.10;89.90;;;;;;4999524;28;20128;-85
2022/10/23 05:04:26;;;;;;;11.20;4.75;;;14.10;89.80;;;;;;5032868;28;20025;-85
2022/10/23 05:06:51;;;;;;;9.70;4.70;;;14.10;89.80;;;;;;5015160;28;20087;-85
2022/10/23 05:09:17;;;;;;;8.48;4.40;;;14.10;90.00;;;;;;5015665;28;20029;-85
2022/10/23 05:11:42;;;;;;;10.15;4.75;;;14.10;89.90;;;;;;5015412;28;20442;-85
2022/10/23 05:14:08;;;;;;;8.90;4.18;;;14.10;90.30;;;;;;5015961;28;20036;-85
2022/10/23 05:16:52;;;;;;;8.00;4.90;;;14.20;89.80;;;;;;5015416;28;20555;-85
2022/10/23 05:19:22;;;;;;;7.72;4.03;;;14.20;89.80;;;;;;5032133;28;20372;-85
2022/10/23 05:21:54;;;;;;;7.25;4.38;;;14.20;89.70;;;;;;5032378;28;20022;-85
2022/10/23 05:24:21;;;;;;;10.00;4.65;;;14.20;89.60;;;;;;5016212;28;20545;-85
2022/10/23 05:26:50;;;;;;;10.30;4.50;;;14.20;89.60;;;;;;5015577;28;20033;-85
2022/10/23 05:29:16;;;;;;;7.78;4.25;;;14.20;90.30;;;;;;5016135;28;20363;-85
2022/10/23 05:31:43;;;;;;;10.38;4.55;;;14.20;89.90;;;;;;5015769;28;20136;-85
2022/10/23 05:34:10;;;;;;;8.52;4.68;;;14.20;89.80;;;;;;5015404;28;20029;-85
2022/10/23 05:36:36;;;;;;;12.07;4.60;;;14.30;90.10;;;;;;5016326;28;20033;-85
2022/10/23 05:39:03;;;;;;;10.13;4.57;;;14.20;90.10;;;;;;5032988;28;20108;-85
2022/10/23 05:41:29;;;;;;;10.25;4.57;;;14.20;90.20;;;;;;5036317;28;20034;-86
2022/10/23 05:43:54;;;;;;;9.23;4.75;;;14.20;90.10;;;;;;5033114;28;20025;-86
2022/10/23 05:46:22;;;;;;;9.38;4.45;;;14.20;90.30;;;;;;5015489;28;20021;-85
2022/10/23 05:48:51;;;;;;;9.43;4.63;;;14.20;90.30;;;;;;5032373;28;20091;-85
2022/10/23 05:51:21;;;;;;;11.68;4.55;;;14.20;90.30;;;;;;5015871;28;20376;-85
2022/10/23 05:53:53;;;;;;;10.57;4.85;;;14.20;90.30;;;;;;5032596;28;20111;-86
2022/10/23 05:56:19;;;;;;;8.65;4.50;;;14.20;90.20;;;;;;5032178;28;20033;-86
2022/10/23 05:58:45;;;;;;;7.78;4.10;;;14.20;90.20;;;;;;5016372;28;20029;-86
2022/10/23 06:01:12;;;;;;;9.93;4.53;;;14.30;90.20;;;;;;5016372;28;20087;-86
2022/10/23 06:03:39;;;;;;;10.40;5.05;;;14.20;90.50;;;;;;5032566;28;20108;-85
2022/10/23 06:06:05;;;;;;;8.95;4.53;;;14.20;90.80;;;;;;5032134;28;20033;-86
2022/10/23 06:08:32;;;;;;;8.48;3.95;;;14.20;90.40;;;;;;5038273;28;20032;-86
2022/10/23 06:11:03;;;;;;;9.75;4.28;;;14.30;90.40;;;;;;5044070;28;20171;-86
2022/10/23 06:13:29;;;;;;;9.30;4.25;;;14.30;90.30;;;;;;5054504;28;20021;-85
2022/10/23 06:15:54;;;;;;;8.10;4.55;;;14.30;90.20;;;;;;5026129;28;20028;-85
2022/10/23 06:18:20;;;;;;;10.20;4.75;;;14.30;90.20;;;;;;5054302;28;20028;-86
2022/10/23 06:20:45;;;;;;;6.88;4.38;;;14.30;90.50;;;;;;5037587;28;20025;-86
2022/10/23 06:23:11;;;;;;;8.15;4.63;;;14.30;90.10;;;;;;5037172;28;20025;-86
2022/10/23 06:25:37;;;;;;;7.97;4.10;;;14.30;90.10;;;;;;5038809;28;20025;-87
2022/10/23 06:28:02;;;;;;;10.55;3.83;;;14.30;90.10;;;;;;5038391;28;20082;-86
2022/10/23 06:30:28;;;;;;;9.77;4.53;;;14.30;90.10;;;;;;5038531;28;20041;-86
2022/10/23 06:32:53;;;;;;;9.43;4.10;;;14.40;90.10;;;;;;5039236;28;20494;-85
2022/10/23 06:35:19;;;;;;;7.88;4.10;;;14.30;90.50;;;;;;5055617;28;20490;-86
2022/10/23 06:37:45;;;;;;;8.60;4.10;;;14.30;90.40;;;;;;5038557;28;20476;-86
2022/10/23 06:40:14;;;;;;;9.82;4.45;;;14.40;90.10;;;;;;5038904;28;20056;-86
2022/10/23 06:42:39;;;;;;;6.20;3.78;;;14.40;90.00;;;;;;5038786;28;20033;-86
2022/10/23 06:45:05;;;;;;;5.97;3.75;;;14.40;90.00;;;;;;5055497;28;20060;-85
2022/10/23 06:47:31;;;;;;;11.20;4.28;;;14.40;90.10;;;;;;5038588;28;20469;-85
2022/10/23 06:49:56;;;;;;;9.70;4.30;;;14.40;90.10;;;;;;5038813;28;20036;-86
2022/10/23 06:52:22;;;;;;;10.68;4.30;;;14.40;90.10;;;;;;5054762;28;20056;-85
2022/10/23 06:54:48;;;;;;;16.30;4.15;;;14.40;90.10;;;;;;5038251;28;20038;-85
2022/10/23 06:57:13;;;;;;;7.03;4.15;;;14.40;90.20;;;;;;5038435;28;20429;-85
2022/10/23 06:59:39;;;;;;;12.50;4.20;;;14.40;90.20;;;;;;5038999;28;20021;-85
2022/10/23 07:02:05;;;;;;;9.23;4.78;;;14.40;90.20;;;;;;5037901;28;20040;-85
2022/10/23 07:04:30;;;;;;;7.65;4.15;;;14.40;90.20;;;;;;5038199;28;20033;-86
2022/10/23 07:06:56;;;;;;;7.32;4.03;;;14.40;90.30;;;;;;5038311;28;20493;-85
2022/10/23 07:09:23;;;;;;;7.47;4.30;;;14.40;90.20;;;;;;5037660;28;20124;-85
2022/10/23 07:11:49;;;;;;;9.70;4.22;;;14.40;90.30;;;;;;5054596;28;20477;-85
2022/10/23 07:14:14;;;;;;;8.18;4.18;;;14.50;90.30;;;;;;5055587;28;20049;-86
2022/10/23 07:16:40;;;;;;;9.60;4.63;;;14.40;90.20;;;;;;5037993;28;20029;-86
2022/10/23 07:19:06;;;;;;;5.88;4.30;;;14.50;90.40;;;;;;5037768;28;20036;-86
2022/10/23 07:21:34;;;;;;;10.50;4.50;;;14.50;90.50;;;;;;5037648;28;20438;-86
2022/10/23 07:24:00;;;;;;;12.07;5.03;;;14.50;90.40;;;;;;5054122;28;20120;-85
2022/10/23 07:26:26;;;;;;;8.15;4.85;;;14.50;90.40;;;;;;5037867;28;20032;-85
2022/10/23 07:28:54;;;;;;;8.82;3.97;;;14.50;90.40;;;;;;5053545;28;20029;-86
2022/10/23 07:31:21;;;;;;;8.93;4.35;;;14.60;90.40;;;;;;5054044;28;20044;-86
2022/10/23 07:33:47;;;;;;;9.32;4.13;;;14.60;90.50;;;;;;5037348;28;20517;-86
2022/10/23 07:36:12;;;;;;;10.70;5.00;;;14.60;90.40;;;;;;5037824;28;20023;-86
2022/10/23 07:38:38;;;;;;;9.18;4.72;;;14.60;90.50;;;;;;5037470;28;20540;-86
2022/10/23 07:41:04;;;;;;;7.57;4.07;;;14.60;90.50;;;;;;5037158;28;20517;-86
2022/10/23 07:43:30;;;;;;;7.50;4.07;;;14.70;90.40;;;;;;5037710;28;20025;-88
2022/10/23 07:45:56;;;;;;;6.18;4.03;;;14.60;90.50;;;;;;5053204;28;20037;-86
2022/10/23 07:48:22;;;;;;;8.88;4.07;;;14.70;90.60;;;;;;5037029;28;20029;-86
2022/10/23 07:50:49;;;;;;;6.32;3.42;;;14.70;90.70;;;;;;5053683;28;20082;-86
2022/10/23 07:53:20;;;;;;;11.73;4.28;;;14.60;90.60;;;;;;5053568;28;20043;-86
2022/10/23 07:56:03;;;;;;;9.30;4.15;;;14.70;90.70;;;;;;5053904;28;20028;-86
2022/10/23 07:58:29;;;;;;;9.27;4.03;;;14.70;90.80;;;;;;5053621;28;20028;-86
2022/10/23 08:00:57;;;;;;;8.30;3.90;;;14.70;90.80;;;;;;5036968;28;20025;-86
2022/10/23 08:03:33;;;;;;;7.50;3.42;;;14.70;90.80;;;;;;5053129;28;20017;-86
2022/10/23 08:05:59;;;;;;;9.05;3.97;;;14.70;90.80;;;;;;5036745;28;20112;-86
2022/10/23 08:08:26;;;;;;;8.50;3.60;;;14.80;90.80;;;;;;5036675;28;20142;-86
2022/10/23 08:10:53;;;;;;;8.30;3.75;;;14.80;90.80;;;;;;5036767;28;20032;-86
2022/10/23 08:13:19;;;;;;;5.60;3.47;;;14.80;90.70;;;;;;5054530;28;20025;-87
2022/10/23 08:15:47;;;;;;;9.52;4.22;;;14.80;90.80;;;;;;5036416;28;20086;-86
2022/10/23 08:18:13;;;;;;;9.57;3.80;;;14.90;90.80;;;;;;5036934;28;20139;-85
2022/10/23 08:20:40;;;;;;;7.95;4.07;;;14.90;90.90;;;;;;5052656;28;20387;-86
2022/10/23 08:23:06;;;;;;;7.88;3.97;;;14.90;90.80;;;;;;5052953;28;20470;-86
2022/10/23 08:25:32;;;;;;;8.93;3.80;;;15.00;90.80;;;;;;5052771;28;20032;-87
2022/10/23 08:27:58;;;;;;;8.32;4.28;;;15.00;90.80;;;;;;5036365;28;20382;-87
2022/10/23 08:30:24;;;;;;;11.13;3.80;;;15.00;90.80;;;;;;5036521;28;20033;-86
2022/10/23 08:32:49;;;;;;;8.60;4.22;;;15.10;90.80;;;;;;5036239;28;20109;-86
2022/10/23 08:35:16;;;;;;;6.10;3.58;;;15.10;90.80;;;;;;5036519;28;20029;-86
2022/10/23 08:37:42;;;;;;;8.85;4.00;;;15.10;90.70;;;;;;5035953;28;20021;-86
2022/10/23 08:40:18;;;;;;;8.25;4.10;;;15.20;90.70;;;;;;5035235;28;20407;-86
2022/10/23 08:42:52;;;;;;;8.32;3.67;;;15.20;90.70;;;;;;5051737;28;20017;-86
2022/10/23 08:45:35;;;;;;;11.10;3.88;;;15.20;90.70;;;;;;5053713;28;20470;-86
2022/10/23 08:48:27;;;;;;;8.18;3.83;;;15.20;90.90;;;;;;5052628;28;20023;-86
2022/10/23 08:51:20;;;;;;;7.75;3.47;;;15.30;91.00;;;;;;5052646;28;20060;-87
2022/10/23 08:53:56;;;;;;;9.20;3.63;;;15.30;90.90;;;;;;5052647;28;20018;-86
2022/10/23 08:56:27;;;;;;;6.03;3.42;;;15.30;90.90;;;;;;5053695;28;20021;-86
2022/10/23 08:59:25;;;;;;;8.02;3.70;;;15.40;90.80;;;;;;5052765;28;20032;-85
2022/10/23 09:02:16;;;;;;;7.20;3.70;;;15.40;90.70;;;;;;5052298;28;20032;-86
2022/10/23 09:04:46;;;;;;;7.95;3.60;;;15.50;90.70;;;;;;5052313;28;20017;-86
2022/10/23 09:07:31;;;;;;;6.15;3.67;;;15.40;90.70;;;;;;5052285;28;20021;-86
2022/10/23 09:10:11;;;;;;;7.57;3.83;;;15.50;90.80;;;;;;5052733;28;20060;-85
2022/10/23 09:12:38;;;;;;;7.35;3.75;;;15.50;90.70;;;;;;5052034;28;20021;-86
2022/10/23 09:15:27;;;;;;;7.78;3.92;;;15.50;90.70;;;;;;5035442;28;20029;-85
2022/10/23 09:17:59;;;;;;;8.65;3.53;;;15.60;90.70;;;;;;5052163;28;20021;-86
2022/10/23 09:20:35;;;;;;;;;;;15.60;90.60;;;;;;5052290;28;20108;-85
2022/10/23 09:23:03;;;;;;;9.07;4.05;;;15.60;90.90;;;;;;5051898;28;20003;-85
2022/10/23 09:25:32;;;;;;;8.50;3.58;;;15.60;90.50;;;;;;5053494;28;20048;-86
2022/10/23 09:28:00;;;;;;;7.40;3.45;;;15.60;90.50;;;;;;5052018;28;20470;-85
2022/10/23 09:30:36;;;;;;;6.95;3.50;;;15.70;90.40;;;;;;5051926;28;20040;-85
2022/10/23 09:33:29;;;;;;;8.40;3.78;;;15.70;90.40;;;;;;5051054;28;20124;-85
2022/10/23 09:36:07;;;;;;;7.45;3.55;;;15.80;90.40;;;;;;5035105;28;20025;-86
2022/10/23 09:38:37;;;;;;;5.15;3.45;;;15.80;90.40;;;;;;5051020;28;20035;-86
2022/10/23 09:41:17;;;;;;;7.95;3.60;;;15.80;90.40;;;;;;5051545;28;20063;-85
2022/10/23 09:43:43;;;;;;;6.95;3.22;;;15.70;90.50;;;;;;5053047;28;20025;-85
2022/10/23 09:46:10;;;;;;;8.27;3.70;;;15.80;90.40;;;;;;5035591;28;20040;-86
2022/10/23 09:48:38;;;;;;;8.23;3.70;;;15.80;90.40;;;;;;5034708;28;20017;-86
2022/10/23 09:51:18;;;;;;;6.55;3.53;;;15.90;90.30;;;;;;5051533;28;20051;-86
2022/10/23 09:53:51;;;;;;;6.35;3.30;;;15.90;90.20;;;;;;5050952;28;20017;-85
2022/10/23 09:56:40;;;;;;;9.27;3.38;;;16.00;90.10;;;;;;5051614;28;20029;-85
2022/10/23 09:59:29;;;;;;;7.38;3.28;;;16.00;90.00;;;;;;5051353;28;20025;-86
2022/10/23 10:01:58;;;;;;;6.57;3.20;;;16.00;90.00;;;;;;5052718;28;20021;-85
2022/10/23 10:04:39;;;;;;;6.57;3.28;;;16.00;90.00;;;;;;5034785;28;20498;-86
2022/10/23 10:07:29;;;;;;;6.25;3.00;;;16.00;90.00;;;;;;5051193;28;20027;-86
2022/10/23 10:09:56;;;;;;;6.82;3.53;;;16.10;90.00;;;;;;5050967;28;20032;-85
2022/10/23 10:12:40;;;;;;;9.35;3.30;;;16.00;90.00;;;;;;5034358;28;20410;-86
2022/10/23 10:15:16;;;;;;;5.72;2.85;;;16.10;89.80;;;;;;5051350;28;20037;-86
2022/10/23 10:18:03;;;;;;;5.93;3.20;;;16.10;90.30;;;;;;5051424;28;20035;-86
2022/10/23 10:20:42;;;;;;;6.65;3.70;;;16.10;89.70;;;;;;5051332;28;20029;-86
2022/10/23 10:23:26;;;;;;;9.43;3.42;;;16.10;89.40;;;;;;5050986;28;20056;-86
2022/10/23 10:26:30;;;;;;;7.78;3.30;;;16.10;89.10;;;;;;5050973;28;20070;-86
2022/10/23 10:29:24;;;;;;;8.60;3.65;;;16.20;89.30;;;;;;5050674;28;20029;-86
2022/10/23 10:31:52;;;;;;;9.05;3.40;;;16.10;89.20;;;;;;5052317;28;20045;-86
2022/10/23 10:34:44;;;;;;;9.88;3.22;;;16.20;89.40;;;;;;5051242;28;20426;-86
2022/10/23 10:37:21;;;;;;;7.00;3.58;;;16.20;88.90;;;;;;5051410;28;20082;-86
2022/10/23 10:39:59;;;;;;;5.80;2.85;;;16.20;89.00;;;;;;5051893;28;20037;-86
2022/10/23 10:42:49;;;;;;;6.28;2.83;;;16.20;88.70;;;;;;5050614;28;20041;-86
2022/10/23 10:45:17;;;;;;;4.35;2.70;;;16.30;88.80;;;;;;5051128;28;20017;-86
2022/10/23 10:47:54;;;;;;;6.03;2.80;;;16.30;88.80;;;;;;5050645;28;20395;-86
2022/10/23 10:50:29;;;;;;;5.80;3.00;;;16.30;88.80;;;;;;5050990;28;20041;-86
2022/10/23 10:53:05;;;;;;;4.32;2.50;;;16.30;89.10;;;;;;5051232;28;20064;-86
2022/10/23 10:55:41;;;;;;;7.05;2.53;;;16.30;89.00;;;;;;5052476;28;20417;-86
2022/10/23 10:58:43;;;;;;;5.65;2.72;;;16.40;88.70;;;;;;5034201;28;20033;-86
2022/10/23 11:01:26;;;;;;;5.88;2.67;;;16.40;88.70;;;;;;5050571;28;20033;-84
2022/10/23 11:04:14;;;;;;;4.75;2.67;;;16.40;88.90;;;;;;5050961;28;20471;-85
2022/10/23 11:06:44;;;;;;;5.93;3.15;;;16.50;88.40;;;;;;5056310;28;20021;-86
2022/10/23 11:09:16;;;;;;;8.93;3.90;;;16.50;88.30;;;;;;5054274;28;20028;-85
2022/10/23 11:11:42;;;;;;;4.65;2.80;;;16.60;88.50;;;;;;5054535;28;20029;-86
2022/10/23 11:14:20;;;;;;;6.25;3.00;;;16.60;88.40;;;;;;5037754;28;20033;-85
2022/10/23 11:17:08;;;;;;;7.80;2.85;;;16.70;87.30;;;;;;5054551;28;20074;-85
2022/10/23 11:19:45;;;;;;;6.28;2.80;;;16.80;87.40;;;;;;5055595;28;20021;-86
2022/10/23 11:22:18;;;;;;;9.30;3.08;;;16.80;87.50;;;;;;5054131;28;20047;-86
2022/10/23 11:24:58;;;;;;;7.72;2.80;;;16.90;87.70;;;;;;5054133;28;20017;-86
2022/10/23 11:27:56;;;;;;;6.50;2.88;;;17.00;86.50;;;;;;5054267;28;20516;-86
2022/10/23 11:30:28;;;;;;;7.28;3.13;;;17.10;86.70;;;;;;5054523;28;20055;-86
2022/10/23 11:33:03;;;;;;;6.97;3.40;;;17.10;86.80;;;;;;5054219;28;20107;-85
2022/10/23 11:35:41;;;;;;;5.90;2.50;;;17.20;86.60;;;;;;5053912;28;20040;-86
2022/10/23 11:38:18;;;;;;;5.25;2.83;;;17.30;86.00;;;;;;5053876;28;20021;-85
2022/10/23 11:40:46;;;;;;;5.40;2.60;;;17.30;85.80;;;;;;5053959;28;20040;-86
2022/10/23 11:43:11;;;;;;;5.72;3.05;;;17.40;85.80;;;;;;5053978;28;20021;-86
2022/10/23 11:45:39;;;;;;;6.18;2.58;;;17.40;85.40;;;;;;5037389;28;20433;-86
2022/10/23 11:48:18;;;;;;;3.63;2.60;;;17.50;85.30;;;;;;5054063;28;20084;-86
2022/10/23 11:50:43;;;;;;;5.18;2.40;;;17.60;85.20;;;;;;5053696;28;20025;-86
2022/10/23 11:53:31;;;;;;;5.55;2.40;;;17.60;85.10;;;;;;5053779;28;20116;-85
2022/10/23 11:56:11;;;;;;;7.68;2.53;;;17.70;84.60;;;;;;5053203;28;20567;-86
2022/10/23 11:58:56;;;;;;;6.93;2.55;;;17.80;84.10;;;;;;5054681;28;20508;-85
2022/10/23 12:01:44;;;;;;;5.00;2.15;;;17.80;83.40;;;;;;5053272;28;20049;-86
2022/10/23 12:04:12;;;;;;;5.70;2.10;;;17.90;83.50;;;;;;5053732;28;20049;-86
2022/10/23 12:06:46;;;;;;;4.63;2.70;;;18.00;83.90;;;;;;5053387;28;20025;-86
2022/10/23 12:09:23;;;;;;;4.28;2.40;;;18.10;83.70;;;;;;5053128;28;20025;-86
2022/10/23 12:12:20;;;;;;;10.23;2.65;;;18.10;83.10;;;;;;5053154;28;20060;-86
2022/10/23 12:14:48;;;;;;;4.60;2.40;;;18.20;82.10;;;;;;5002715;28;20071;-86
2022/10/23 12:17:36;;;;;;;5.57;2.33;;;18.20;82.40;;;;;;5052730;28;20021;-86
2022/10/23 12:20:07;;;;;;;5.50;2.20;;;18.20;81.80;;;;;;5052672;28;20116;-86
2022/10/23 12:23:04;;;;;;;6.90;2.28;;;18.20;81.40;;;;;;5053123;28;20029;-86
2022/10/23 12:25:45;;;;;;;5.55;2.30;;;18.20;81.10;;;;;;5052827;28;20029;-86
2022/10/23 12:28:43;;;;;;;6.10;2.22;;;18.20;81.60;;;;;;5053057;28;20017;-86
2022/10/23 12:31:40;;;;;;;3.60;1.80;;;18.20;81.40;;;;;;5053929;28;20507;-85
2022/10/23 12:34:16;;;;;;;6.95;2.42;;;18.30;80.60;;;;;;5053367;28;20112;-85
2022/10/23 12:37:01;;;;;;;3.97;2.30;;;18.30;81.00;;;;;;5053046;28;20108;-85
2022/10/23 12:39:31;;;;;;;4.07;2.10;;;18.40;81.70;;;;;;5053065;28;20112;-87
2022/10/23 12:41:59;;;;;;;4.80;2.53;;;18.40;81.60;;;;;;5035788;28;20116;-86
2022/10/23 12:44:26;;;;;;;5.00;2.20;;;18.40;81.40;;;;;;5036331;28;20180;-87
2022/10/23 12:46:58;;;;;;;4.60;2.47;;;18.40;80.50;;;;;;5052738;28;20033;-86
2022/10/23 12:49:26;;;;;;;4.57;2.50;;;18.40;80.90;;;;;;5053894;28;20049;-86
2022/10/23 12:51:59;;;;;;;4.43;2.53;;;18.40;80.80;;;;;;5053737;28;20032;-86
2022/10/23 12:54:26;;;;;;;5.13;2.35;;;18.50;80.70;;;;;;5052557;28;20537;-86
2022/10/23 12:56:53;;;;;;;3.78;2.30;;;18.50;80.90;;;;;;5036404;28;20024;-86
2022/10/23 12:59:25;;;;;;;7.80;3.40;;;18.50;80.90;;;;;;5052208;28;20021;-86
2022/10/23 13:01:51;;;;;;;5.73;2.73;;;18.50;80.40;;;;;;5053420;28;20079;-86
2022/10/23 13:04:26;;;;;;;4.72;2.47;;;18.50;80.90;;;;;;5053069;28;20017;-85
2022/10/23 13:06:55;;;;;;;3.55;2.33;;;18.60;80.20;;;;;;5054334;28;20017;-86
2022/10/23 13:09:40;;;;;;;5.38;2.70;;;18.60;80.60;;;;;;5052237;28;20029;-86